Terminal Aerodrome Forecast
Issued by NWS

Home | Current Version | Previous Version | Text Only | Print | Product List | Glossary On
Versions: 1 2 3 4 5 6 7 8 9 10 11 12
000
FTUS45 KTFX 282320
TAFCTB
TAF
KCTB 282320Z 2900/2924 25020G27KT P6SM SCT070
     FM290300 24011KT P6SM BKN070
     FM291600 25017G25KT P6SM BKN070=

USA.gov is the U.S. government's official web portal to all federal, state and local government web resources and services.